sensor_id;sensor_type;location;lat;lon;timestamp;temperature;humidity
7564;DHT22;3823;53.586;10.040;2023-02-28T00:00:30;5.60;1.00
7564;DHT22;3823;53.586;10.040;2023-02-28T00:02:55;5.60;1.00
7564;DHT22;3823;53.586;10.040;2023-02-28T00:05:22;5.70;1.00
7564;DHT22;3823;53.586;10.040;2023-02-28T00:07:50;5.70;1.00
7564;DHT22;3823;53.586;10.040;2023-02-28T00:10:18;5.60;1.00
7564;DHT22;3823;53.586;10.040;2023-02-28T00:12:49;5.50;1.00
7564;DHT22;3823;53.586;10.040;2023-02-28T00:15:15;5.60;1.00
7564;DHT22;3823;53.586;10.040;2023-02-28T00:17:40;5.60;1.00
7564;DHT22;3823;53.586;10.040;2023-02-28T00:20:06;5.60;1.00
7564;DHT22;3823;53.586;10.040;2023-02-28T00:22:34;5.70;1.00
7564;DHT22;3823;53.586;10.040;2023-02-28T00:24:59;5.70;1.00
7564;DHT22;3823;53.586;10.040;2023-02-28T00:27:25;5.70;1.00
7564;DHT22;3823;53.586;10.040;2023-02-28T00:29:51;5.60;1.00
7564;DHT22;3823;53.586;10.040;2023-02-28T00:32:16;5.50;1.00
7564;DHT22;3823;53.586;10.040;2023-02-28T00:34:44;5.50;1.00
7564;DHT22;3823;53.586;10.040;2023-02-28T00:37:11;5.50;1.00
7564;DHT22;3823;53.586;10.040;2023-02-28T00:39:40;5.40;1.00
7564;DHT22;3823;53.586;10.040;2023-02-28T00:42:06;5.60;1.00
7564;DHT22;3823;53.586;10.040;2023-02-28T00:44:32;5.60;1.00
7564;DHT22;3823;53.586;10.040;2023-02-28T00:46:58;5.60;1.00
7564;DHT22;3823;53.586;10.040;2023-02-28T00:49:25;5.60;1.00
7564;DHT22;3823;53.586;10.040;2023-02-28T00:51:52;5.60;1.00
7564;DHT22;3823;53.586;10.040;2023-02-28T00:54:18;5.60;1.00
7564;DHT22;3823;53.586;10.040;2023-02-28T00:56:44;5.60;1.00
7564;DHT22;3823;53.586;10.040;2023-02-28T00:59:11;5.60;1.00
7564;DHT22;3823;53.586;10.040;2023-02-28T01:01:37;5.50;1.00
7564;DHT22;3823;53.586;10.040;2023-02-28T01:04:03;5.50;1.00
7564;DHT22;3823;53.586;10.040;2023-02-28T01:06:28;5.50;1.00
7564;DHT22;3823;53.586;10.040;2023-02-28T01:08:54;5.50;1.00
7564;DHT22;3823;53.586;10.040;2023-02-28T01:11:19;5.50;1.00
7564;DHT22;3823;53.586;10.040;2023-02-28T01:13:46;5.50;1.00
7564;DHT22;3823;53.586;10.040;2023-02-28T01:16:12;5.40;1.00
7564;DHT22;3823;53.586;10.040;2023-02-28T01:18:38;5.30;1.00
7564;DHT22;3823;53.586;10.040;2023-02-28T01:21:10;5.30;1.00
7564;DHT22;3823;53.586;10.040;2023-02-28T01:23:36;5.30;1.00
7564;DHT22;3823;53.586;10.040;2023-02-28T01:26:27;5.40;1.00
7564;DHT22;3823;53.586;10.040;2023-02-28T01:28:53;5.50;1.00
7564;DHT22;3823;53.586;10.040;2023-02-28T01:31:19;5.40;1.00
7564;DHT22;3823;53.586;10.040;2023-02-28T01:33:45;5.30;1.00
7564;DHT22;3823;53.586;10.040;2023-02-28T01:36:16;5.30;1.00
7564;DHT22;3823;53.586;10.040;2023-02-28T01:38:43;5.30;1.00
7564;DHT22;3823;53.586;10.040;2023-02-28T01:41:17;5.20;1.00
7564;DHT22;3823;53.586;10.040;2023-02-28T01:46:10;5.10;1.00
7564;DHT22;3823;53.586;10.040;2023-02-28T01:48:47;5.10;1.00
7564;DHT22;3823;53.586;10.040;2023-02-28T01:51:17;5.20;1.00
7564;DHT22;3823;53.586;10.040;2023-02-28T01:53:48;5.20;1.00
7564;DHT22;3823;53.586;10.040;2023-02-28T01:56:20;5.00;1.00
7564;DHT22;3823;53.586;10.040;2023-02-28T01:58:52;5.10;1.00
7564;DHT22;3823;53.586;10.040;2023-02-28T02:01:19;5.10;1.00
7564;DHT22;3823;53.586;10.040;2023-02-28T02:03:54;5.10;1.00
7564;DHT22;3823;53.586;10.040;2023-02-28T02:06:27;5.10;1.00
7564;DHT22;3823;53.586;10.040;2023-02-28T02:08:54;4.90;1.00
7564;DHT22;3823;53.586;10.040;2023-02-28T02:11:21;4.90;1.00
7564;DHT22;3823;53.586;10.040;2023-02-28T02:14:12;4.80;1.00
7564;DHT22;3823;53.586;10.040;2023-02-28T02:17:22;4.80;1.00
7564;DHT22;3823;53.586;10.040;2023-02-28T02:25:54;4.70;1.00
7564;DHT22;3823;53.586;10.040;2023-02-28T02:39:48;4.40;1.00
7564;DHT22;3823;53.586;10.040;2023-02-28T02:42:24;4.30;1.00
7564;DHT22;3823;53.586;10.040;2023-02-28T02:45:00;4.40;1.00
7564;DHT22;3823;53.586;10.040;2023-02-28T02:47:28;4.40;1.00
7564;DHT22;3823;53.586;10.040;2023-02-28T02:49:58;4.40;1.00
7564;DHT22;3823;53.586;10.040;2023-02-28T02:52:32;4.20;1.00
7564;DHT22;3823;53.586;10.040;2023-02-28T02:55:00;4.20;1.00
7564;DHT22;3823;53.586;10.040;2023-02-28T02:57:32;4.20;1.00
7564;DHT22;3823;53.586;10.040;2023-02-28T03:00:00;4.20;1.00
7564;DHT22;3823;53.586;10.040;2023-02-28T03:02:28;4.30;1.00
7564;DHT22;3823;53.586;10.040;2023-02-28T03:05:03;4.30;1.00
7564;DHT22;3823;53.586;10.040;2023-02-28T03:07:30;4.30;1.00
7564;DHT22;3823;53.586;10.040;2023-02-28T03:09:57;4.30;1.00
7564;DHT22;3823;53.586;10.040;2023-02-28T03:15:27;4.20;1.00
7564;DHT22;3823;53.586;10.040;2023-02-28T03:18:04;4.00;1.00
7564;DHT22;3823;53.586;10.040;2023-02-28T03:21:04;3.80;1.00
7564;DHT22;3823;53.586;10.040;2023-02-28T03:23:41;3.60;1.00
7564;DHT22;3823;53.586;10.040;2023-02-28T03:26:17;3.60;1.00
7564;DHT22;3823;53.586;10.040;2023-02-28T03:28:56;3.60;1.00
7564;DHT22;3823;53.586;10.040;2023-02-28T03:31:31;3.50;1.00
7564;DHT22;3823;53.586;10.040;2023-02-28T03:36:49;3.50;1.00
7564;DHT22;3823;53.586;10.040;2023-02-28T03:41:57;3.60;1.00
7564;DHT22;3823;53.586;10.040;2023-02-28T03:44:32;3.60;1.00
7564;DHT22;3823;53.586;10.040;2023-02-28T03:47:10;3.60;1.00
7564;DHT22;3823;53.586;10.040;2023-02-28T03:49:45;3.50;1.00
7564;DHT22;3823;53.586;10.040;2023-02-28T03:52:13;3.50;1.00
7564;DHT22;3823;53.586;10.040;2023-02-28T03:54:48;3.60;1.00
7564;DHT22;3823;53.586;10.040;2023-02-28T03:57:36;3.50;1.00
7564;DHT22;3823;53.586;10.040;2023-02-28T04:00:16;3.50;1.00
7564;DHT22;3823;53.586;10.040;2023-02-28T04:02:45;3.50;1.00
7564;DHT22;3823;53.586;10.040;2023-02-28T04:05:10;3.50;1.00
7564;DHT22;3823;53.586;10.040;2023-02-28T04:07:36;3.50;1.00
7564;DHT22;3823;53.586;10.040;2023-02-28T04:10:02;3.60;1.00
7564;DHT22;3823;53.586;10.040;2023-02-28T04:12:28;3.40;1.00
7564;DHT22;3823;53.586;10.040;2023-02-28T04:14:53;3.30;1.00
7564;DHT22;3823;53.586;10.040;2023-02-28T04:17:19;3.30;1.00
7564;DHT22;3823;53.586;10.040;2023-02-28T04:19:44;3.30;1.00
7564;DHT22;3823;53.586;10.040;2023-02-28T04:22:10;3.30;1.00
7564;DHT22;3823;53.586;10.040;2023-02-28T04:24:36;3.30;1.00
7564;DHT22;3823;53.586;10.040;2023-02-28T04:27:02;3.30;1.00
7564;DHT22;3823;53.586;10.040;2023-02-28T04:29:32;3.30;1.00
7564;DHT22;3823;53.586;10.040;2023-02-28T04:31:58;3.40;1.00
7564;DHT22;3823;53.586;10.040;2023-02-28T04:34:26;3.30;1.00
7564;DHT22;3823;53.586;10.040;2023-02-28T04:36:52;3.30;1.00
7564;DHT22;3823;53.586;10.040;2023-02-28T04:39:20;3.20;1.00
7564;DHT22;3823;53.586;10.040;2023-02-28T04:41:46;3.20;1.00
7564;DHT22;3823;53.586;10.040;2023-02-28T04:44:13;3.20;1.00
7564;DHT22;3823;53.586;10.040;2023-02-28T04:46:38;3.20;1.00
7564;DHT22;3823;53.586;10.040;2023-02-28T04:49:04;3.10;1.00
7564;DHT22;3823;53.586;10.040;2023-02-28T04:51:30;3.10;1.00
7564;DHT22;3823;53.586;10.040;2023-02-28T04:53:55;3.00;1.00
7564;DHT22;3823;53.586;10.040;2023-02-28T04:56:21;3.10;1.00
7564;DHT22;3823;53.586;10.040;2023-02-28T04:58:47;3.10;1.00
7564;DHT22;3823;53.586;10.040;2023-02-28T05:03:51;3.00;1.00
7564;DHT22;3823;53.586;10.040;2023-02-28T05:06:17;3.00;1.00
7564;DHT22;3823;53.586;10.040;2023-02-28T05:08:43;3.00;1.00
7564;DHT22;3823;53.586;10.040;2023-02-28T05:11:18;3.00;1.00
7564;DHT22;3823;53.586;10.040;2023-02-28T05:13:44;3.00;1.00
7564;DHT22;3823;53.586;10.040;2023-02-28T05:16:09;3.00;1.00
7564;DHT22;3823;53.586;10.040;2023-02-28T05:18:35;3.00;1.00
7564;DHT22;3823;53.586;10.040;2023-02-28T05:21:01;3.00;1.00
7564;DHT22;3823;53.586;10.040;2023-02-28T05:23:27;3.00;1.00
7564;DHT22;3823;53.586;10.040;2023-02-28T05:25:53;2.90;1.00
7564;DHT22;3823;53.586;10.040;2023-02-28T05:28:19;2.80;1.00
7564;DHT22;3823;53.586;10.040;2023-02-28T05:30:45;2.80;1.00
7564;DHT22;3823;53.586;10.040;2023-02-28T05:33:11;2.70;1.00
7564;DHT22;3823;53.586;10.040;2023-02-28T05:35:39;2.70;1.00
7564;DHT22;3823;53.586;10.040;2023-02-28T05:38:06;2.60;1.00
7564;DHT22;3823;53.586;10.040;2023-02-28T05:40:31;2.50;1.00
7564;DHT22;3823;53.586;10.040;2023-02-28T05:42:57;2.50;1.00
7564;DHT22;3823;53.586;10.040;2023-02-28T05:45:22;2.40;1.00
7564;DHT22;3823;53.586;10.040;2023-02-28T05:47:48;2.40;1.00
7564;DHT22;3823;53.586;10.040;2023-02-28T05:50:14;2.40;1.00
7564;DHT22;3823;53.586;10.040;2023-02-28T05:52:39;2.40;1.00
7564;DHT22;3823;53.586;10.040;2023-02-28T05:55:05;2.60;1.00
7564;DHT22;3823;53.586;10.040;2023-02-28T05:57:31;2.60;1.00
7564;DHT22;3823;53.586;10.040;2023-02-28T05:59:57;2.60;1.00
7564;DHT22;3823;53.586;10.040;2023-02-28T06:02:22;2.60;1.00
7564;DHT22;3823;53.586;10.040;2023-02-28T06:04:48;2.50;1.00
7564;DHT22;3823;53.586;10.040;2023-02-28T06:07:14;2.50;1.00
7564;DHT22;3823;53.586;10.040;2023-02-28T06:09:40;2.50;1.00
7564;DHT22;3823;53.586;10.040;2023-02-28T06:12:06;2.50;1.00
7564;DHT22;3823;53.586;10.040;2023-02-28T06:14:33;2.50;1.00
7564;DHT22;3823;53.586;10.040;2023-02-28T06:16:59;2.50;1.00
7564;DHT22;3823;53.586;10.040;2023-02-28T06:19:26;2.50;1.00
7564;DHT22;3823;53.586;10.040;2023-02-28T06:21:52;2.60;1.00
7564;DHT22;3823;53.586;10.040;2023-02-28T06:24:20;3.00;1.00
7564;DHT22;3823;53.586;10.040;2023-02-28T06:26:46;3.40;1.00
7564;DHT22;3823;53.586;10.040;2023-02-28T06:29:12;3.90;1.00
7564;DHT22;3823;53.586;10.040;2023-02-28T06:31:38;4.50;1.00
7564;DHT22;3823;53.586;10.040;2023-02-28T06:34:04;5.00;1.00
7564;DHT22;3823;53.586;10.040;2023-02-28T06:36:30;5.50;1.00
7564;DHT22;3823;53.586;10.040;2023-02-28T06:38:56;6.10;1.00
7564;DHT22;3823;53.586;10.040;2023-02-28T06:41:26;6.50;1.00
7564;DHT22;3823;53.586;10.040;2023-02-28T06:43:52;7.00;1.00
7564;DHT22;3823;53.586;10.040;2023-02-28T06:46:18;7.50;1.00
7564;DHT22;3823;53.586;10.040;2023-02-28T06:48:44;7.80;1.00
7564;DHT22;3823;53.586;10.040;2023-02-28T06:51:16;7.90;1.00
7564;DHT22;3823;53.586;10.040;2023-02-28T06:53:42;7.70;1.00
7564;DHT22;3823;53.586;10.040;2023-02-28T06:56:10;7.30;1.00
7564;DHT22;3823;53.586;10.040;2023-02-28T06:58:36;7.00;1.00
7564;DHT22;3823;53.586;10.040;2023-02-28T07:01:03;6.70;1.00
7564;DHT22;3823;53.586;10.040;2023-02-28T07:03:29;6.40;1.00
7564;DHT22;3823;53.586;10.040;2023-02-28T07:05:54;6.10;1.00
7564;DHT22;3823;53.586;10.040;2023-02-28T07:08:22;6.20;1.00
7564;DHT22;3823;53.586;10.040;2023-02-28T07:10:52;6.40;1.00
7564;DHT22;3823;53.586;10.040;2023-02-28T07:13:17;6.40;1.00
7564;DHT22;3823;53.586;10.040;2023-02-28T07:15:43;6.10;1.00
7564;DHT22;3823;53.586;10.040;2023-02-28T07:18:08;6.00;1.00
7564;DHT22;3823;53.586;10.040;2023-02-28T07:20:34;6.10;1.00
7564;DHT22;3823;53.586;10.040;2023-02-28T07:22:59;6.20;1.00
7564;DHT22;3823;53.586;10.040;2023-02-28T07:25:27;6.40;1.00
7564;DHT22;3823;53.586;10.040;2023-02-28T07:27:54;6.50;1.00
7564;DHT22;3823;53.586;10.040;2023-02-28T07:30:20;6.60;1.00
7564;DHT22;3823;53.586;10.040;2023-02-28T07:32:46;6.70;1.00
7564;DHT22;3823;53.586;10.040;2023-02-28T07:35:12;6.90;1.00
7564;DHT22;3823;53.586;10.040;2023-02-28T07:37:37;7.10;1.00
7564;DHT22;3823;53.586;10.040;2023-02-28T07:40:08;7.10;1.00
7564;DHT22;3823;53.586;10.040;2023-02-28T07:42:34;7.30;1.00
7564;DHT22;3823;53.586;10.040;2023-02-28T07:45:00;7.60;1.00
7564;DHT22;3823;53.586;10.040;2023-02-28T07:47:26;8.00;1.00
7564;DHT22;3823;53.586;10.040;2023-02-28T07:49:51;8.10;1.00
7564;DHT22;3823;53.586;10.040;2023-02-28T07:52:17;8.20;1.00
7564;DHT22;3823;53.586;10.040;2023-02-28T07:54:42;8.40;1.00
7564;DHT22;3823;53.586;10.040;2023-02-28T07:57:08;8.60;1.00
7564;DHT22;3823;53.586;10.040;2023-02-28T07:59:33;8.70;1.00
7564;DHT22;3823;53.586;10.040;2023-02-28T08:01:59;8.70;1.00
7564;DHT22;3823;53.586;10.040;2023-02-28T08:04:25;8.90;1.00
7564;DHT22;3823;53.586;10.040;2023-02-28T08:06:50;8.90;1.00
7564;DHT22;3823;53.586;10.040;2023-02-28T08:09:19;9.20;1.00
7564;DHT22;3823;53.586;10.040;2023-02-28T08:11:45;9.60;1.00
7564;DHT22;3823;53.586;10.040;2023-02-28T08:14:10;9.90;1.00
7564;DHT22;3823;53.586;10.040;2023-02-28T08:16:36;10.30;1.00
7564;DHT22;3823;53.586;10.040;2023-02-28T08:19:02;10.10;1.00
7564;DHT22;3823;53.586;10.040;2023-02-28T08:21:28;10.20;1.00
7564;DHT22;3823;53.586;10.040;2023-02-28T08:23:53;10.60;1.00
7564;DHT22;3823;53.586;10.040;2023-02-28T08:26:20;11.00;1.00
7564;DHT22;3823;53.586;10.040;2023-02-28T08:28:45;10.90;1.00
7564;DHT22;3823;53.586;10.040;2023-02-28T08:31:14;10.80;1.00
7564;DHT22;3823;53.586;10.040;2023-02-28T08:33:40;11.00;1.00
7564;DHT22;3823;53.586;10.040;2023-02-28T08:36:08;11.40;1.00
7564;DHT22;3823;53.586;10.040;2023-02-28T08:38:34;11.30;1.00
7564;DHT22;3823;53.586;10.040;2023-02-28T08:41:02;11.20;1.00
7564;DHT22;3823;53.586;10.040;2023-02-28T08:43:29;11.30;1.00
7564;DHT22;3823;53.586;10.040;2023-02-28T08:45:55;11.00;1.00
7564;DHT22;3823;53.586;10.040;2023-02-28T08:48:26;11.00;1.00
7564;DHT22;3823;53.586;10.040;2023-02-28T08:51:01;11.10;1.00
7564;DHT22;3823;53.586;10.040;2023-02-28T08:53:27;11.30;1.00
7564;DHT22;3823;53.586;10.040;2023-02-28T08:56:04;11.70;1.00
7564;DHT22;3823;53.586;10.040;2023-02-28T08:58:30;11.70;1.00
7564;DHT22;3823;53.586;10.040;2023-02-28T09:00:56;11.80;1.00
7564;DHT22;3823;53.586;10.040;2023-02-28T09:03:22;12.00;1.00
7564;DHT22;3823;53.586;10.040;2023-02-28T09:05:58;12.00;1.00
7564;DHT22;3823;53.586;10.040;2023-02-28T09:08:25;12.00;1.00
7564;DHT22;3823;53.586;10.040;2023-02-28T09:10:51;11.50;1.00
7564;DHT22;3823;53.586;10.040;2023-02-28T09:13:18;11.70;1.00
7564;DHT22;3823;53.586;10.040;2023-02-28T09:15:44;12.40;1.00
7564;DHT22;3823;53.586;10.040;2023-02-28T09:18:09;12.60;1.00
7564;DHT22;3823;53.586;10.040;2023-02-28T09:20:38;12.80;1.00
7564;DHT22;3823;53.586;10.040;2023-02-28T09:23:05;12.80;1.00
7564;DHT22;3823;53.586;10.040;2023-02-28T09:25:31;12.70;1.00
7564;DHT22;3823;53.586;10.040;2023-02-28T09:27:56;12.80;1.00
7564;DHT22;3823;53.586;10.040;2023-02-28T09:30:22;13.30;1.00
7564;DHT22;3823;53.586;10.040;2023-02-28T09:32:47;13.20;1.00
7564;DHT22;3823;53.586;10.040;2023-02-28T09:35:19;13.10;1.00
7564;DHT22;3823;53.586;10.040;2023-02-28T09:37:47;12.70;1.00
7564;DHT22;3823;53.586;10.040;2023-02-28T09:40:13;12.80;1.00
7564;DHT22;3823;53.586;10.040;2023-02-28T09:42:40;12.60;1.00
7564;DHT22;3823;53.586;10.040;2023-02-28T09:45:30;12.90;1.00
7564;DHT22;3823;53.586;10.040;2023-02-28T09:48:01;12.70;1.00
7564;DHT22;3823;53.586;10.040;2023-02-28T09:52:55;12.50;1.00
7564;DHT22;3823;53.586;10.040;2023-02-28T09:55:46;13.20;1.00
7564;DHT22;3823;53.586;10.040;2023-02-28T09:58:29;13.30;1.00
7564;DHT22;3823;53.586;10.040;2023-02-28T10:01:31;13.40;1.00
7564;DHT22;3823;53.586;10.040;2023-02-28T10:04:05;12.90;1.00
7564;DHT22;3823;53.586;10.040;2023-02-28T10:06:41;13.00;1.00
7564;DHT22;3823;53.586;10.040;2023-02-28T10:09:26;13.50;1.00
7564;DHT22;3823;53.586;10.040;2023-02-28T10:11:57;13.80;1.00
7564;DHT22;3823;53.586;10.040;2023-02-28T10:14:28;13.70;1.00
7564;DHT22;3823;53.586;10.040;2023-02-28T10:16:58;13.50;1.00
7564;DHT22;3823;53.586;10.040;2023-02-28T10:24:48;14.10;1.00
7564;DHT22;3823;53.586;10.040;2023-02-28T10:27:19;14.20;1.00
7564;DHT22;3823;53.586;10.040;2023-02-28T10:29:56;14.10;1.00
7564;DHT22;3823;53.586;10.040;2023-02-28T10:32:32;14.30;1.00
7564;DHT22;3823;53.586;10.040;2023-02-28T10:35:01;14.60;1.00
7564;DHT22;3823;53.586;10.040;2023-02-28T10:37:31;14.70;1.00
7564;DHT22;3823;53.586;10.040;2023-02-28T10:39:57;14.50;1.00
7564;DHT22;3823;53.586;10.040;2023-02-28T10:42:25;13.90;1.00
7564;DHT22;3823;53.586;10.040;2023-02-28T10:45:12;13.60;1.00
7564;DHT22;3823;53.586;10.040;2023-02-28T10:50:39;13.80;1.00
7564;DHT22;3823;53.586;10.040;2023-02-28T10:53:16;13.90;1.00
7564;DHT22;3823;53.586;10.040;2023-02-28T10:55:43;14.00;1.00
7564;DHT22;3823;53.586;10.040;2023-02-28T10:58:23;14.50;1.00
7564;DHT22;3823;53.586;10.040;2023-02-28T11:00:48;14.60;1.00
7564;DHT22;3823;53.586;10.040;2023-02-28T11:03:32;14.60;1.00
7564;DHT22;3823;53.586;10.040;2023-02-28T11:06:03;13.90;1.00
7564;DHT22;3823;53.586;10.040;2023-02-28T11:08:29;13.30;1.00
7564;DHT22;3823;53.586;10.040;2023-02-28T11:10:57;12.90;1.00
7564;DHT22;3823;53.586;10.040;2023-02-28T11:13:42;12.80;1.00
7564;DHT22;3823;53.586;10.040;2023-02-28T11:16:11;13.00;1.00
7564;DHT22;3823;53.586;10.040;2023-02-28T11:18:55;13.00;1.00
7564;DHT22;3823;53.586;10.040;2023-02-28T11:24:15;13.60;1.00
7564;DHT22;3823;53.586;10.040;2023-02-28T11:26:46;13.20;1.00
7564;DHT22;3823;53.586;10.040;2023-02-28T11:29:24;12.90;1.00
7564;DHT22;3823;53.586;10.040;2023-02-28T11:34:31;12.70;1.00
7564;DHT22;3823;53.586;10.040;2023-02-28T11:36:58;12.70;1.00
7564;DHT22;3823;53.586;10.040;2023-02-28T11:39:26;12.80;1.00
7564;DHT22;3823;53.586;10.040;2023-02-28T11:42:11;12.70;1.00
7564;DHT22;3823;53.586;10.040;2023-02-28T11:47:20;12.80;1.00
7564;DHT22;3823;53.586;10.040;2023-02-28T11:55:24;13.20;1.00
7564;DHT22;3823;53.586;10.040;2023-02-28T12:03:04;13.30;1.00
7564;DHT22;3823;53.586;10.040;2023-02-28T12:05:42;13.30;1.00
7564;DHT22;3823;53.586;10.040;2023-02-28T12:08:31;13.70;1.00
7564;DHT22;3823;53.586;10.040;2023-02-28T12:14:25;13.50;1.00
7564;DHT22;3823;53.586;10.040;2023-02-28T12:17:27;12.20;1.00
7564;DHT22;3823;53.586;10.040;2023-02-28T12:20:17;11.70;1.00
7564;DHT22;3823;53.586;10.040;2023-02-28T12:23:01;12.20;1.00
7564;DHT22;3823;53.586;10.040;2023-02-28T12:28:13;11.40;1.00
7564;DHT22;3823;53.586;10.040;2023-02-28T12:31:00;11.00;1.00
7564;DHT22;3823;53.586;10.040;2023-02-28T12:33:33;10.90;1.00
7564;DHT22;3823;53.586;10.040;2023-02-28T12:36:05;10.90;1.00
7564;DHT22;3823;53.586;10.040;2023-02-28T12:38:39;11.20;1.00
7564;DHT22;3823;53.586;10.040;2023-02-28T12:41:13;11.20;1.00
7564;DHT22;3823;53.586;10.040;2023-02-28T12:43:57;11.40;1.00
7564;DHT22;3823;53.586;10.040;2023-02-28T12:46:29;11.70;1.00
7564;DHT22;3823;53.586;10.040;2023-02-28T12:49:00;12.00;1.00
7564;DHT22;3823;53.586;10.040;2023-02-28T12:51:30;12.50;1.00
7564;DHT22;3823;53.586;10.040;2023-02-28T12:54:15;12.60;1.00
7564;DHT22;3823;53.586;10.040;2023-02-28T12:57:09;12.40;1.00
7564;DHT22;3823;53.586;10.040;2023-02-28T12:59:45;12.00;1.00
7564;DHT22;3823;53.586;10.040;2023-02-28T13:08:20;12.50;1.00
7564;DHT22;3823;53.586;10.040;2023-02-28T13:10:50;12.10;1.00
7564;DHT22;3823;53.586;10.040;2023-02-28T13:13:25;12.00;1.00
7564;DHT22;3823;53.586;10.040;2023-02-28T13:16:06;12.00;1.00
7564;DHT22;3823;53.586;10.040;2023-02-28T13:19:08;12.40;1.00
7564;DHT22;3823;53.586;10.040;2023-02-28T13:21:43;12.00;1.00
7564;DHT22;3823;53.586;10.040;2023-02-28T13:24:09;11.30;1.00
7564;DHT22;3823;53.586;10.040;2023-02-28T13:29:21;11.10;1.00
7564;DHT22;3823;53.586;10.040;2023-02-28T13:39:55;11.30;1.00
7564;DHT22;3823;53.586;10.040;2023-02-28T13:42:46;10.90;1.00
7564;DHT22;3823;53.586;10.040;2023-02-28T13:47:58;10.60;1.00
7564;DHT22;3823;53.586;10.040;2023-02-28T13:56:04;11.30;1.00
7564;DHT22;3823;53.586;10.040;2023-02-28T13:59:00;11.60;1.00
7564;DHT22;3823;53.586;10.040;2023-02-28T14:01:40;11.70;1.00
7564;DHT22;3823;53.586;10.040;2023-02-28T14:07:06;12.10;1.00
7564;DHT22;3823;53.586;10.040;2023-02-28T14:09:34;11.50;1.00
7564;DHT22;3823;53.586;10.040;2023-02-28T14:15:25;11.00;1.00
7564;DHT22;3823;53.586;10.040;2023-02-28T14:17:54;11.20;1.00
7564;DHT22;3823;53.586;10.040;2023-02-28T14:20:22;11.20;1.00
7564;DHT22;3823;53.586;10.040;2023-02-28T14:31:15;11.00;1.00
7564;DHT22;3823;53.586;10.040;2023-02-28T14:33:59;11.00;1.00
7564;DHT22;3823;53.586;10.040;2023-02-28T14:36:37;11.10;1.00
7564;DHT22;3823;53.586;10.040;2023-02-28T14:39:14;11.40;1.00
7564;DHT22;3823;53.586;10.040;2023-02-28T14:41:42;11.20;1.00
7564;DHT22;3823;53.586;10.040;2023-02-28T14:44:25;10.90;1.00
7564;DHT22;3823;53.586;10.040;2023-02-28T14:46:54;11.10;1.00
7564;DHT22;3823;53.586;10.040;2023-02-28T14:49:37;10.70;1.00
7564;DHT22;3823;53.586;10.040;2023-02-28T14:52:24;10.90;1.00
7564;DHT22;3823;53.586;10.040;2023-02-28T14:54:57;11.20;1.00
7564;DHT22;3823;53.586;10.040;2023-02-28T14:57:28;11.30;1.00
7564;DHT22;3823;53.586;10.040;2023-02-28T15:02:25;10.90;1.00
7564;DHT22;3823;53.586;10.040;2023-02-28T15:04:58;10.70;1.00
7564;DHT22;3823;53.586;10.040;2023-02-28T15:07:25;10.50;1.00
7564;DHT22;3823;53.586;10.040;2023-02-28T15:13:01;10.20;1.00
7564;DHT22;3823;53.586;10.040;2023-02-28T15:18:03;10.30;1.00
7564;DHT22;3823;53.586;10.040;2023-02-28T15:20:31;10.20;1.00
7564;DHT22;3823;53.586;10.040;2023-02-28T15:22:57;10.10;1.00
7564;DHT22;3823;53.586;10.040;2023-02-28T15:25:25;10.10;1.00
7564;DHT22;3823;53.586;10.040;2023-02-28T15:27:53;10.10;1.00
7564;DHT22;3823;53.586;10.040;2023-02-28T15:30:30;10.10;1.00
7564;DHT22;3823;53.586;10.040;2023-02-28T15:35:38;10.00;1.00
7564;DHT22;3823;53.586;10.040;2023-02-28T15:38:18;10.20;1.00
7564;DHT22;3823;53.586;10.040;2023-02-28T15:40:49;10.40;1.00
7564;DHT22;3823;53.586;10.040;2023-02-28T15:43:39;10.10;1.00
7564;DHT22;3823;53.586;10.040;2023-02-28T15:46:10;9.80;1.00
7564;DHT22;3823;53.586;10.040;2023-02-28T15:48:43;10.10;1.00
7564;DHT22;3823;53.586;10.040;2023-02-28T15:51:17;10.20;1.00
7564;DHT22;3823;53.586;10.040;2023-02-28T15:56:25;9.80;1.00
7564;DHT22;3823;53.586;10.040;2023-02-28T15:58:54;9.70;1.00
7564;DHT22;3823;53.586;10.040;2023-02-28T16:01:24;9.60;1.00
7564;DHT22;3823;53.586;10.040;2023-02-28T16:03:53;9.50;1.00
7564;DHT22;3823;53.586;10.040;2023-02-28T16:06:35;9.70;1.00
7564;DHT22;3823;53.586;10.040;2023-02-28T16:09:04;9.70;1.00
7564;DHT22;3823;53.586;10.040;2023-02-28T16:11:29;9.80;1.00
7564;DHT22;3823;53.586;10.040;2023-02-28T16:13:56;9.50;1.00
7564;DHT22;3823;53.586;10.040;2023-02-28T16:16:23;9.50;1.00
7564;DHT22;3823;53.586;10.040;2023-02-28T16:18:50;9.50;1.00
7564;DHT22;3823;53.586;10.040;2023-02-28T16:21:16;9.70;1.00
7564;DHT22;3823;53.586;10.040;2023-02-28T16:23:41;9.70;1.00
7564;DHT22;3823;53.586;10.040;2023-02-28T16:26:09;9.50;1.00
7564;DHT22;3823;53.586;10.040;2023-02-28T16:28:41;9.50;1.00
7564;DHT22;3823;53.586;10.040;2023-02-28T16:31:07;9.50;1.00
7564;DHT22;3823;53.586;10.040;2023-02-28T16:33:33;9.40;1.00
7564;DHT22;3823;53.586;10.040;2023-02-28T16:36:00;9.30;1.00
7564;DHT22;3823;53.586;10.040;2023-02-28T16:38:25;9.30;1.00
7564;DHT22;3823;53.586;10.040;2023-02-28T16:40:53;9.40;1.00
7564;DHT22;3823;53.586;10.040;2023-02-28T16:43:24;9.50;1.00
7564;DHT22;3823;53.586;10.040;2023-02-28T16:45:57;9.60;1.00
7564;DHT22;3823;53.586;10.040;2023-02-28T16:48:24;9.50;1.00
7564;DHT22;3823;53.586;10.040;2023-02-28T16:50:50;9.60;1.00
7564;DHT22;3823;53.586;10.040;2023-02-28T16:53:16;9.60;1.00
7564;DHT22;3823;53.586;10.040;2023-02-28T16:55:42;9.50;1.00
7564;DHT22;3823;53.586;10.040;2023-02-28T16:58:14;9.30;1.00
7564;DHT22;3823;53.586;10.040;2023-02-28T17:00:40;9.10;1.00
7564;DHT22;3823;53.586;10.040;2023-02-28T17:03:33;9.00;1.00
7564;DHT22;3823;53.586;10.040;2023-02-28T17:05:58;8.80;1.00
7564;DHT22;3823;53.586;10.040;2023-02-28T17:08:24;8.70;1.00
7564;DHT22;3823;53.586;10.040;2023-02-28T17:10:50;8.60;1.00
7564;DHT22;3823;53.586;10.040;2023-02-28T17:13:15;8.50;1.00
7564;DHT22;3823;53.586;10.040;2023-02-28T17:15:41;8.60;1.00
7564;DHT22;3823;53.586;10.040;2023-02-28T17:18:09;8.70;1.00
7564;DHT22;3823;53.586;10.040;2023-02-28T17:20:38;8.70;1.00
7564;DHT22;3823;53.586;10.040;2023-02-28T17:23:04;8.80;1.00
7564;DHT22;3823;53.586;10.040;2023-02-28T17:25:30;8.80;1.00
7564;DHT22;3823;53.586;10.040;2023-02-28T17:27:55;8.90;1.00
7564;DHT22;3823;53.586;10.040;2023-02-28T17:30:24;8.90;1.00
7564;DHT22;3823;53.586;10.040;2023-02-28T17:32:50;8.80;1.00
7564;DHT22;3823;53.586;10.040;2023-02-28T17:35:16;8.70;1.00
7564;DHT22;3823;53.586;10.040;2023-02-28T17:37:41;8.70;1.00
7564;DHT22;3823;53.586;10.040;2023-02-28T17:40:13;8.70;1.00
7564;DHT22;3823;53.586;10.040;2023-02-28T17:42:39;8.60;1.00
7564;DHT22;3823;53.586;10.040;2023-02-28T17:45:05;8.60;1.00
7564;DHT22;3823;53.586;10.040;2023-02-28T17:47:30;8.60;1.00
7564;DHT22;3823;53.586;10.040;2023-02-28T17:49:56;8.60;1.00
7564;DHT22;3823;53.586;10.040;2023-02-28T17:52:21;8.60;1.00
7564;DHT22;3823;53.586;10.040;2023-02-28T17:54:47;8.50;1.00
7564;DHT22;3823;53.586;10.040;2023-02-28T17:57:15;8.40;1.00
7564;DHT22;3823;53.586;10.040;2023-02-28T17:59:43;8.50;1.00
7564;DHT22;3823;53.586;10.040;2023-02-28T18:02:12;8.40;1.00
7564;DHT22;3823;53.586;10.040;2023-02-28T18:04:37;8.20;1.00
7564;DHT22;3823;53.586;10.040;2023-02-28T18:07:03;8.20;1.00
7564;DHT22;3823;53.586;10.040;2023-02-28T18:09:29;8.30;1.00
7564;DHT22;3823;53.586;10.040;2023-02-28T18:11:55;8.30;1.00
7564;DHT22;3823;53.586;10.040;2023-02-28T18:14:24;8.30;1.00
7564;DHT22;3823;53.586;10.040;2023-02-28T18:16:52;8.10;1.00
7564;DHT22;3823;53.586;10.040;2023-02-28T18:19:18;8.00;1.00
7564;DHT22;3823;53.586;10.040;2023-02-28T18:21:46;7.90;1.00
7564;DHT22;3823;53.586;10.040;2023-02-28T18:24:11;7.90;1.00
7564;DHT22;3823;53.586;10.040;2023-02-28T18:26:38;8.00;1.00
7564;DHT22;3823;53.586;10.040;2023-02-28T18:29:04;8.00;1.00